sensor_id;sensor_type;location;lat;lon;timestamp;P1;durP1;ratioP1;P2;durP2;ratioP2
19863;SDS011;10094;48.820;9.226;2022-12-18T00:03:12;81.20;;;35.97;;
19863;SDS011;10094;48.820;9.226;2022-12-18T00:09:57;92.05;;;37.95;;
19863;SDS011;10094;48.820;9.226;2022-12-18T00:16:40;84.75;;;36.33;;
19863;SDS011;10094;48.820;9.226;2022-12-18T00:23:26;84.90;;;36.47;;
19863;SDS011;10094;48.820;9.226;2022-12-18T00:30:09;86.90;;;36.78;;
19863;SDS011;10094;48.820;9.226;2022-12-18T00:36:52;73.55;;;34.08;;
19863;SDS011;10094;48.820;9.226;2022-12-18T00:43:36;88.75;;;39.53;;
19863;SDS011;10094;48.820;9.226;2022-12-18T00:50:21;83.57;;;37.47;;
19863;SDS011;10094;48.820;9.226;2022-12-18T00:57:05;76.32;;;31.75;;
19863;SDS011;10094;48.820;9.226;2022-12-18T01:03:47;83.35;;;36.05;;
19863;SDS011;10094;48.820;9.226;2022-12-18T01:10:30;94.95;;;36.88;;
19863;SDS011;10094;48.820;9.226;2022-12-18T01:17:13;77.97;;;33.35;;
19863;SDS011;10094;48.820;9.226;2022-12-18T01:23:56;83.45;;;34.25;;
19863;SDS011;10094;48.820;9.226;2022-12-18T01:30:41;77.35;;;30.90;;
19863;SDS011;10094;48.820;9.226;2022-12-18T01:37:23;90.18;;;35.35;;
19863;SDS011;10094;48.820;9.226;2022-12-18T01:51:40;77.50;;;27.83;;
19863;SDS011;10094;48.820;9.226;2022-12-18T01:58:32;87.70;;;36.03;;
19863;SDS011;10094;48.820;9.226;2022-12-18T02:26:43;74.97;;;31.40;;
19863;SDS011;10094;48.820;9.226;2022-12-18T02:33:39;68.15;;;30.08;;
19863;SDS011;10094;48.820;9.226;2022-12-18T02:40:24;75.60;;;27.35;;
19863;SDS011;10094;48.820;9.226;2022-12-18T02:47:09;69.47;;;29.35;;
19863;SDS011;10094;48.820;9.226;2022-12-18T02:54:04;57.53;;;26.83;;
19863;SDS011;10094;48.820;9.226;2022-12-18T03:00:57;66.90;;;28.90;;
19863;SDS011;10094;48.820;9.226;2022-12-18T03:08:37;63.53;;;28.15;;
19863;SDS011;10094;48.820;9.226;2022-12-18T03:22:04;60.45;;;26.58;;
19863;SDS011;10094;48.820;9.226;2022-12-18T03:29:06;52.58;;;25.67;;
19863;SDS011;10094;48.820;9.226;2022-12-18T03:35:55;56.58;;;25.27;;
19863;SDS011;10094;48.820;9.226;2022-12-18T03:42:42;50.67;;;24.80;;
19863;SDS011;10094;48.820;9.226;2022-12-18T03:49:47;60.25;;;25.15;;
19863;SDS011;10094;48.820;9.226;2022-12-18T03:56:32;61.40;;;26.77;;
19863;SDS011;10094;48.820;9.226;2022-12-18T04:03:20;57.55;;;24.38;;
19863;SDS011;10094;48.820;9.226;2022-12-18T04:10:07;60.25;;;26.50;;
19863;SDS011;10094;48.820;9.226;2022-12-18T04:16:55;65.55;;;28.60;;
19863;SDS011;10094;48.820;9.226;2022-12-18T04:23:43;57.10;;;25.27;;
19863;SDS011;10094;48.820;9.226;2022-12-18T04:30:28;55.90;;;24.02;;
19863;SDS011;10094;48.820;9.226;2022-12-18T04:37:13;58.70;;;26.02;;
19863;SDS011;10094;48.820;9.226;2022-12-18T04:43:57;57.40;;;27.00;;
19863;SDS011;10094;48.820;9.226;2022-12-18T04:50:39;55.28;;;24.38;;
19863;SDS011;10094;48.820;9.226;2022-12-18T04:57:21;52.80;;;23.42;;
19863;SDS011;10094;48.820;9.226;2022-12-18T05:04:04;55.28;;;23.83;;
19863;SDS011;10094;48.820;9.226;2022-12-18T05:10:46;41.28;;;18.63;;
19863;SDS011;10094;48.820;9.226;2022-12-18T05:17:34;58.13;;;23.52;;
19863;SDS011;10094;48.820;9.226;2022-12-18T05:24:16;56.35;;;24.70;;
19863;SDS011;10094;48.820;9.226;2022-12-18T05:30:59;44.90;;;22.67;;
19863;SDS011;10094;48.820;9.226;2022-12-18T05:37:42;54.47;;;24.23;;
19863;SDS011;10094;48.820;9.226;2022-12-18T05:44:25;58.88;;;24.85;;
19863;SDS011;10094;48.820;9.226;2022-12-18T05:51:08;41.60;;;21.50;;
19863;SDS011;10094;48.820;9.226;2022-12-18T05:57:56;50.33;;;22.85;;
19863;SDS011;10094;48.820;9.226;2022-12-18T06:04:39;56.08;;;22.67;;
19863;SDS011;10094;48.820;9.226;2022-12-18T06:11:22;43.05;;;20.23;;
19863;SDS011;10094;48.820;9.226;2022-12-18T06:18:06;47.20;;;21.83;;
19863;SDS011;10094;48.820;9.226;2022-12-18T06:24:48;41.30;;;20.38;;
19863;SDS011;10094;48.820;9.226;2022-12-18T06:31:31;50.50;;;23.05;;
19863;SDS011;10094;48.820;9.226;2022-12-18T06:38:14;46.20;;;21.55;;
19863;SDS011;10094;48.820;9.226;2022-12-18T06:45:22;57.30;;;23.88;;
19863;SDS011;10094;48.820;9.226;2022-12-18T06:52:11;43.88;;;21.88;;
19863;SDS011;10094;48.820;9.226;2022-12-18T06:58:56;49.28;;;22.95;;
19863;SDS011;10094;48.820;9.226;2022-12-18T07:05:39;46.30;;;21.52;;
19863;SDS011;10094;48.820;9.226;2022-12-18T07:12:22;40.47;;;20.90;;
19863;SDS011;10094;48.820;9.226;2022-12-18T07:19:23;48.15;;;21.50;;
19863;SDS011;10094;48.820;9.226;2022-12-18T07:26:06;40.47;;;20.33;;
19863;SDS011;10094;48.820;9.226;2022-12-18T07:32:50;38.00;;;20.17;;
19863;SDS011;10094;48.820;9.226;2022-12-18T07:39:33;41.97;;;18.65;;
19863;SDS011;10094;48.820;9.226;2022-12-18T07:46:15;46.70;;;20.48;;
19863;SDS011;10094;48.820;9.226;2022-12-18T07:52:58;44.15;;;21.75;;
19863;SDS011;10094;48.820;9.226;2022-12-18T07:59:45;40.72;;;20.17;;
19863;SDS011;10094;48.820;9.226;2022-12-18T08:06:27;40.33;;;19.65;;
19863;SDS011;10094;48.820;9.226;2022-12-18T08:13:10;37.97;;;20.63;;
19863;SDS011;10094;48.820;9.226;2022-12-18T08:19:54;42.60;;;20.55;;
19863;SDS011;10094;48.820;9.226;2022-12-18T08:26:37;46.95;;;22.25;;
19863;SDS011;10094;48.820;9.226;2022-12-18T08:33:19;39.20;;;21.23;;
19863;SDS011;10094;48.820;9.226;2022-12-18T08:40:10;43.85;;;22.50;;
19863;SDS011;10094;48.820;9.226;2022-12-18T08:46:58;44.83;;;24.13;;
19863;SDS011;10094;48.820;9.226;2022-12-18T08:53:47;40.10;;;23.33;;
19863;SDS011;10094;48.820;9.226;2022-12-18T09:00:32;39.97;;;23.73;;
19863;SDS011;10094;48.820;9.226;2022-12-18T09:07:15;37.67;;;24.23;;
19863;SDS011;10094;48.820;9.226;2022-12-18T09:13:57;39.13;;;25.02;;
19863;SDS011;10094;48.820;9.226;2022-12-18T09:20:42;37.58;;;25.27;;
19863;SDS011;10094;48.820;9.226;2022-12-18T09:27:24;40.03;;;27.67;;
19863;SDS011;10094;48.820;9.226;2022-12-18T09:34:07;48.67;;;27.90;;
19863;SDS011;10094;48.820;9.226;2022-12-18T09:40:53;43.38;;;26.10;;
19863;SDS011;10094;48.820;9.226;2022-12-18T09:47:40;44.95;;;27.77;;
19863;SDS011;10094;48.820;9.226;2022-12-18T09:54:26;45.90;;;26.13;;
19863;SDS011;10094;48.820;9.226;2022-12-18T10:01:18;40.42;;;26.70;;
19863;SDS011;10094;48.820;9.226;2022-12-18T10:08:05;42.53;;;26.85;;
19863;SDS011;10094;48.820;9.226;2022-12-18T10:21:50;41.63;;;26.90;;
19863;SDS011;10094;48.820;9.226;2022-12-18T10:28:37;39.42;;;26.00;;
19863;SDS011;10094;48.820;9.226;2022-12-18T10:35:24;38.80;;;24.48;;
19863;SDS011;10094;48.820;9.226;2022-12-18T10:42:16;42.30;;;24.85;;
19863;SDS011;10094;48.820;9.226;2022-12-18T10:49:01;43.05;;;25.17;;
19863;SDS011;10094;48.820;9.226;2022-12-18T10:55:44;41.88;;;20.88;;
19863;SDS011;10094;48.820;9.226;2022-12-18T11:02:33;40.15;;;21.55;;
19863;SDS011;10094;48.820;9.226;2022-12-18T11:09:21;43.20;;;20.65;;
19863;SDS011;10094;48.820;9.226;2022-12-18T11:16:05;42.97;;;22.42;;
19863;SDS011;10094;48.820;9.226;2022-12-18T11:22:55;43.30;;;21.40;;
19863;SDS011;10094;48.820;9.226;2022-12-18T11:29:40;44.28;;;21.20;;
19863;SDS011;10094;48.820;9.226;2022-12-18T11:36:28;45.10;;;22.20;;
19863;SDS011;10094;48.820;9.226;2022-12-18T11:43:15;42.83;;;23.05;;
19863;SDS011;10094;48.820;9.226;2022-12-18T11:50:05;41.22;;;23.70;;
19863;SDS011;10094;48.820;9.226;2022-12-18T12:03:59;42.47;;;23.15;;
19863;SDS011;10094;48.820;9.226;2022-12-18T12:32:20;44.08;;;23.30;;
19863;SDS011;10094;48.820;9.226;2022-12-18T12:39:25;45.28;;;22.83;;
19863;SDS011;10094;48.820;9.226;2022-12-18T12:46:17;45.58;;;24.63;;
19863;SDS011;10094;48.820;9.226;2022-12-18T12:53:06;54.55;;;24.48;;
19863;SDS011;10094;48.820;9.226;2022-12-18T13:13:54;55.85;;;24.02;;
19863;SDS011;10094;48.820;9.226;2022-12-18T13:20:45;45.97;;;23.15;;
19863;SDS011;10094;48.820;9.226;2022-12-18T13:27:59;43.22;;;24.42;;
19863;SDS011;10094;48.820;9.226;2022-12-18T13:34:44;49.60;;;23.95;;
19863;SDS011;10094;48.820;9.226;2022-12-18T13:41:26;47.67;;;22.30;;
19863;SDS011;10094;48.820;9.226;2022-12-18T13:48:15;40.00;;;22.23;;
19863;SDS011;10094;48.820;9.226;2022-12-18T13:54:59;39.28;;;22.27;;
19863;SDS011;10094;48.820;9.226;2022-12-18T14:08:36;45.35;;;23.45;;
19863;SDS011;10094;48.820;9.226;2022-12-18T14:15:24;44.22;;;22.05;;
19863;SDS011;10094;48.820;9.226;2022-12-18T14:22:13;44.72;;;22.42;;
19863;SDS011;10094;48.820;9.226;2022-12-18T14:29:23;42.40;;;24.08;;
19863;SDS011;10094;48.820;9.226;2022-12-18T14:36:17;46.45;;;22.85;;
19863;SDS011;10094;48.820;9.226;2022-12-18T14:43:02;49.20;;;24.30;;
19863;SDS011;10094;48.820;9.226;2022-12-18T14:49:44;50.13;;;25.58;;
19863;SDS011;10094;48.820;9.226;2022-12-18T14:56:27;45.75;;;23.55;;
19863;SDS011;10094;48.820;9.226;2022-12-18T15:03:12;43.55;;;24.05;;
19863;SDS011;10094;48.820;9.226;2022-12-18T15:10:12;48.20;;;24.60;;
19863;SDS011;10094;48.820;9.226;2022-12-18T15:17:00;45.55;;;24.17;;
19863;SDS011;10094;48.820;9.226;2022-12-18T15:23:46;50.75;;;27.23;;
19863;SDS011;10094;48.820;9.226;2022-12-18T15:30:30;54.45;;;27.60;;
19863;SDS011;10094;48.820;9.226;2022-12-18T15:37:13;50.78;;;27.55;;
19863;SDS011;10094;48.820;9.226;2022-12-18T15:43:55;56.40;;;26.98;;
19863;SDS011;10094;48.820;9.226;2022-12-18T15:50:38;54.78;;;27.88;;
19863;SDS011;10094;48.820;9.226;2022-12-18T15:57:20;57.75;;;27.42;;
19863;SDS011;10094;48.820;9.226;2022-12-18T16:04:06;52.78;;;27.13;;
19863;SDS011;10094;48.820;9.226;2022-12-18T16:10:48;58.85;;;27.73;;
19863;SDS011;10094;48.820;9.226;2022-12-18T16:17:36;54.10;;;26.73;;
19863;SDS011;10094;48.820;9.226;2022-12-18T16:24:19;59.08;;;26.90;;
19863;SDS011;10094;48.820;9.226;2022-12-18T16:31:03;59.53;;;27.42;;
19863;SDS011;10094;48.820;9.226;2022-12-18T16:37:46;53.45;;;26.63;;
19863;SDS011;10094;48.820;9.226;2022-12-18T16:44:29;59.70;;;28.35;;
19863;SDS011;10094;48.820;9.226;2022-12-18T16:51:12;62.05;;;30.02;;
19863;SDS011;10094;48.820;9.226;2022-12-18T16:57:58;48.38;;;28.63;;
19863;SDS011;10094;48.820;9.226;2022-12-18T17:04:41;52.50;;;27.85;;
19863;SDS011;10094;48.820;9.226;2022-12-18T17:11:24;55.10;;;29.50;;
19863;SDS011;10094;48.820;9.226;2022-12-18T17:18:11;52.83;;;26.75;;
19863;SDS011;10094;48.820;9.226;2022-12-18T17:24:53;50.30;;;25.85;;
19863;SDS011;10094;48.820;9.226;2022-12-18T17:31:37;46.47;;;24.77;;
19863;SDS011;10094;48.820;9.226;2022-12-18T17:38:19;51.40;;;24.48;;
19863;SDS011;10094;48.820;9.226;2022-12-18T17:45:02;45.20;;;23.27;;
19863;SDS011;10094;48.820;9.226;2022-12-18T17:52:06;43.83;;;23.65;;
19863;SDS011;10094;48.820;9.226;2022-12-18T17:58:57;42.22;;;22.83;;
19863;SDS011;10094;48.820;9.226;2022-12-18T18:05:40;41.17;;;23.35;;
19863;SDS011;10094;48.820;9.226;2022-12-18T18:12:22;47.72;;;23.25;;
19863;SDS011;10094;48.820;9.226;2022-12-18T18:19:23;42.78;;;23.05;;
19863;SDS011;10094;48.820;9.226;2022-12-18T18:26:06;46.90;;;24.40;;
19863;SDS011;10094;48.820;9.226;2022-12-18T18:32:50;41.88;;;21.60;;
19863;SDS011;10094;48.820;9.226;2022-12-18T18:39:34;37.83;;;21.35;;
19863;SDS011;10094;48.820;9.226;2022-12-18T18:46:17;35.83;;;19.95;;
19863;SDS011;10094;48.820;9.226;2022-12-18T18:52:59;42.38;;;21.70;;
19863;SDS011;10094;48.820;9.226;2022-12-18T18:59:42;38.72;;;20.48;;
19863;SDS011;10094;48.820;9.226;2022-12-18T19:06:25;38.53;;;21.27;;
19863;SDS011;10094;48.820;9.226;2022-12-18T19:13:10;42.70;;;21.02;;
19863;SDS011;10094;48.820;9.226;2022-12-18T19:20:21;38.70;;;20.77;;
19863;SDS011;10094;48.820;9.226;2022-12-18T19:27:05;40.38;;;21.25;;
19863;SDS011;10094;48.820;9.226;2022-12-18T19:33:48;40.38;;;21.38;;
19863;SDS011;10094;48.820;9.226;2022-12-18T19:40:31;42.92;;;20.83;;
19863;SDS011;10094;48.820;9.226;2022-12-18T19:47:14;43.28;;;21.77;;
19863;SDS011;10094;48.820;9.226;2022-12-18T19:53:58;41.15;;;19.38;;
19863;SDS011;10094;48.820;9.226;2022-12-18T20:00:42;34.78;;;19.30;;
19863;SDS011;10094;48.820;9.226;2022-12-18T20:07:25;38.05;;;19.95;;
19863;SDS011;10094;48.820;9.226;2022-12-18T20:14:08;45.42;;;21.27;;
19863;SDS011;10094;48.820;9.226;2022-12-18T20:20:57;40.10;;;20.90;;
19863;SDS011;10094;48.820;9.226;2022-12-18T20:27:41;41.60;;;20.23;;
19863;SDS011;10094;48.820;9.226;2022-12-18T20:34:24;39.08;;;20.23;;
19863;SDS011;10094;48.820;9.226;2022-12-18T20:41:07;41.20;;;19.95;;
19863;SDS011;10094;48.820;9.226;2022-12-18T20:47:55;34.53;;;16.85;;
19863;SDS011;10094;48.820;9.226;2022-12-18T20:54:57;37.33;;;19.45;;
19863;SDS011;10094;48.820;9.226;2022-12-18T21:01:44;36.15;;;19.42;;
19863;SDS011;10094;48.820;9.226;2022-12-18T21:08:30;42.95;;;22.10;;
19863;SDS011;10094;48.820;9.226;2022-12-18T21:15:13;39.47;;;21.30;;
19863;SDS011;10094;48.820;9.226;2022-12-18T21:21:56;47.00;;;22.65;;
19863;SDS011;10094;48.820;9.226;2022-12-18T21:28:39;44.65;;;22.75;;
19863;SDS011;10094;48.820;9.226;2022-12-18T21:35:21;43.95;;;22.10;;
19863;SDS011;10094;48.820;9.226;2022-12-18T21:42:06;42.00;;;20.80;;
19863;SDS011;10094;48.820;9.226;2022-12-18T21:49:09;43.97;;;23.00;;
19863;SDS011;10094;48.820;9.226;2022-12-18T21:55:58;42.95;;;21.88;;
19863;SDS011;10094;48.820;9.226;2022-12-18T22:02:41;40.72;;;21.40;;
19863;SDS011;10094;48.820;9.226;2022-12-18T22:09:24;43.53;;;21.60;;
19863;SDS011;10094;48.820;9.226;2022-12-18T22:16:06;45.92;;;22.92;;
19863;SDS011;10094;48.820;9.226;2022-12-18T22:22:49;42.28;;;21.95;;
19863;SDS011;10094;48.820;9.226;2022-12-18T22:29:32;42.58;;;22.08;;
19863;SDS011;10094;48.820;9.226;2022-12-18T22:36:34;40.63;;;20.40;;
19863;SDS011;10094;48.820;9.226;2022-12-18T22:43:20;41.88;;;20.65;;
19863;SDS011;10094;48.820;9.226;2022-12-18T22:50:03;40.22;;;19.70;;
19863;SDS011;10094;48.820;9.226;2022-12-18T22:56:46;37.47;;;17.98;;
19863;SDS011;10094;48.820;9.226;2022-12-18T23:03:30;41.90;;;20.42;;
19863;SDS011;10094;48.820;9.226;2022-12-18T23:10:16;37.05;;;19.10;;
19863;SDS011;10094;48.820;9.226;2022-12-18T23:16:58;40.10;;;19.08;;
19863;SDS011;10094;48.820;9.226;2022-12-18T23:23:41;37.17;;;18.67;;
19863;SDS011;10094;48.820;9.226;2022-12-18T23:30:23;39.30;;;19.70;;
19863;SDS011;10094;48.820;9.226;2022-12-18T23:37:06;35.40;;;19.08;;
19863;SDS011;10094;48.820;9.226;2022-12-18T23:43:48;38.15;;;19.60;;
19863;SDS011;10094;48.820;9.226;2022-12-18T23:50:33;35.63;;;19.88;;
19863;SDS011;10094;48.820;9.226;2022-12-18T23:57:19;39.80;;;21.02;;
